Time;durP1;ratioP1;P1;durP2;ratioP2;P2;SDS_P1;SDS_P2;PMS_P1;PMS_P2;Temp;Humidity;BMP_temperature;BMP_pressure;BME280_temperature;BME280_humidity;BME280_pressure;Samples;Min_cycle;Max_cycle;Signal;HPM_P1;HPM_P2
2023/06/16 00:00:43;;;;;;;10.88;5.95;;;23.00;72.80;;;;;;7394098;19;19917;-73
2023/06/16 00:03:09;;;;;;;11.27;6.65;;;23.10;73.10;;;;;;7395751;19;19923;-73
2023/06/16 00:05:35;;;;;;;10.68;6.50;;;23.10;72.60;;;;;;7396312;19;19915;-73
2023/06/16 00:08:03;;;;;;;8.45;5.88;;;23.00;72.30;;;;;;7398205;19;19921;-72
2023/06/16 00:10:30;;;;;;;7.75;5.32;;;23.00;72.00;;;;;;7394656;19;19915;-72
2023/06/16 00:12:56;;;;;;;9.13;5.60;;;23.00;71.50;;;;;;7396410;19;20275;-73
2023/06/16 00:15:21;;;;;;;10.15;6.20;;;23.00;70.70;;;;;;7395289;19;21960;-73
2023/06/16 00:17:49;;;;;;;10.30;4.90;;;23.00;69.90;;;;;;7398884;19;19922;-72
2023/06/16 00:20:19;;;;;;;8.88;5.47;;;23.00;69.70;;;;;;7395979;19;19990;-72
2023/06/16 00:22:47;;;;;;;8.32;5.50;;;22.90;70.00;;;;;;7400241;19;19921;-74
2023/06/16 00:25:15;;;;;;;9.40;6.00;;;22.90;70.40;;;;;;7395780;19;19929;-73
2023/06/16 00:27:41;;;;;;;11.00;5.75;;;22.90;71.10;;;;;;7396796;19;19926;-72
2023/06/16 00:30:07;;;;;;;9.68;5.90;;;22.90;71.90;;;;;;7398331;19;19918;-73
2023/06/16 00:32:33;;;;;;;9.48;6.55;;;22.90;72.40;;;;;;7399617;19;19939;-74
2023/06/16 00:34:59;;;;;;;11.48;6.18;;;22.90;72.80;;;;;;7397242;19;19918;-73
2023/06/16 00:37:24;;;;;;;10.43;6.18;;;23.00;72.10;;;;;;7395766;19;20358;-73
2023/06/16 00:39:50;;;;;;;9.52;5.82;;;22.90;72.60;;;;;;7399100;19;19919;-73
2023/06/16 00:42:16;;;;;;;9.98;5.88;;;22.80;73.00;;;;;;7398129;19;19934;-72
2023/06/16 00:44:42;;;;;;;8.60;5.65;;;22.70;73.30;;;;;;7392680;19;19923;-74
2023/06/16 00:47:08;;;;;;;11.93;6.72;;;22.80;73.70;;;;;;7397050;19;19930;-74
2023/06/16 00:49:33;;;;;;;9.98;6.65;;;22.70;74.30;;;;;;7397874;19;19937;-73
2023/06/16 00:52:01;;;;;;;10.73;6.30;;;22.70;74.60;;;;;;7396571;19;19925;-72
2023/06/16 00:54:27;;;;;;;10.82;6.07;;;22.70;74.70;;;;;;7397655;19;20261;-73
2023/06/16 00:56:53;;;;;;;11.50;7.22;;;22.70;74.60;;;;;;7397492;19;19918;-73
2023/06/16 00:59:26;;;;;;;11.32;6.63;;;22.70;74.90;;;;;;7400043;19;20300;-73
2023/06/16 01:01:52;;;;;;;10.70;6.30;;;22.70;75.80;;;;;;7403688;19;19982;-72
2023/06/16 01:04:20;;;;;;;9.23;5.50;;;22.70;75.30;;;;;;7401784;19;19938;-73
2023/06/16 01:06:52;;;;;;;9.50;6.35;;;22.70;75.10;;;;;;7403862;19;19921;-73
2023/06/16 01:09:39;;;;;;;11.65;6.13;;;22.60;75.40;;;;;;7401098;19;19926;-73
2023/06/16 01:12:22;;;;;;;9.35;6.07;;;22.60;75.50;;;;;;7401948;19;19950;-73
2023/06/16 01:14:57;;;;;;;10.82;6.55;;;22.60;75.70;;;;;;7405055;19;19994;-72
2023/06/16 01:17:26;;;;;;;11.52;6.90;;;22.70;75.90;;;;;;7403108;19;19949;-72
2023/06/16 01:20:14;;;;;;;9.07;6.25;;;22.70;75.80;;;;;;7402728;19;19954;-72
2023/06/16 01:22:53;;;;;;;12.70;6.43;;;22.70;75.60;;;;;;7402106;19;19954;-73
2023/06/16 01:25:22;;;;;;;;;;;22.70;75.70;;;;;;7406723;19;20275;-72
2023/06/16 01:27:53;;;;;;;9.23;6.38;;;22.70;75.60;;;;;;7404735;19;19919;-72
2023/06/16 01:30:22;;;;;;;9.93;6.88;;;22.70;75.70;;;;;;7404667;19;19918;-72
2023/06/16 01:32:52;;;;;;;8.00;6.25;;;22.60;75.70;;;;;;7401206;19;19948;-73
2023/06/16 01:35:19;;;;;;;9.85;6.18;;;22.50;75.70;;;;;;7401976;19;19925;-72
2023/06/16 01:37:45;;;;;;;16.23;6.90;;;22.50;76.20;;;;;;7398111;19;20278;-72
2023/06/16 01:40:12;;;;;;;11.57;7.20;;;22.50;76.40;;;;;;7397946;19;19930;-72
2023/06/16 01:42:38;;;;;;;9.63;6.28;;;22.50;76.50;;;;;;7403239;19;19922;-73
2023/06/16 01:45:05;;;;;;;9.52;6.32;;;22.50;76.50;;;;;;7400670;19;19922;-73
2023/06/16 01:47:32;;;;;;;11.90;5.85;;;22.50;75.30;;;;;;7403252;19;20334;-73
2023/06/16 01:49:58;;;;;;;10.25;6.45;;;22.50;75.20;;;;;;7402514;19;19918;-73
2023/06/16 01:52:23;;;;;;;10.60;6.30;;;22.50;75.10;;;;;;7399819;19;19937;-73
2023/06/16 01:54:49;;;;;;;10.57;6.72;;;22.50;75.10;;;;;;7401793;19;20299;-73
2023/06/16 01:57:15;;;;;;;10.75;6.82;;;22.50;75.50;;;;;;7396307;19;19922;-72
2023/06/16 01:59:41;;;;;;;11.30;7.15;;;22.50;75.50;;;;;;7399758;19;19991;-72
2023/06/16 02:02:15;;;;;;;10.25;6.63;;;22.50;75.60;;;;;;7396558;19;19926;-72
2023/06/16 02:04:47;;;;;;;11.35;6.50;;;22.50;75.70;;;;;;7401276;19;19921;-73
2023/06/16 02:07:21;;;;;;;11.32;6.43;;;22.50;75.60;;;;;;7402602;19;19938;-73
2023/06/16 02:09:49;;;;;;;10.63;6.13;;;22.50;75.20;;;;;;7396679;19;19914;-72
2023/06/16 02:12:15;;;;;;;8.65;5.57;;;22.50;73.60;;;;;;7398259;19;19922;-74
2023/06/16 02:14:43;;;;;;;9.48;4.90;;;22.50;73.00;;;;;;7398661;19;19938;-72
2023/06/16 02:17:12;;;;;;;10.50;5.78;;;22.40;72.80;;;;;;7395921;19;20331;-72
2023/06/16 02:19:38;;;;;;;8.95;5.63;;;22.30;73.00;;;;;;7400161;19;19911;-73
2023/06/16 02:22:05;;;;;;;11.65;5.68;;;22.30;72.40;;;;;;7401325;19;19919;-73
2023/06/16 02:24:31;;;;;;;11.07;5.32;;;22.30;72.60;;;;;;7404657;19;19930;-73
2023/06/16 02:26:57;;;;;;;9.25;5.72;;;22.30;72.00;;;;;;7402997;19;19943;-72
2023/06/16 02:29:23;;;;;;;13.35;6.78;;;22.20;72.50;;;;;;7401232;19;19982;-72
2023/06/16 02:31:50;;;;;;;10.57;5.78;;;22.20;74.30;;;;;;7402501;19;19928;-72
2023/06/16 02:34:16;;;;;;;13.68;6.72;;;22.10;74.50;;;;;;7400315;19;19942;-72
2023/06/16 02:36:43;;;;;;;9.05;5.65;;;22.10;74.30;;;;;;7398935;19;19986;-72
2023/06/16 02:39:10;;;;;;;10.73;6.10;;;22.10;74.50;;;;;;7401070;19;19915;-72
2023/06/16 02:41:36;;;;;;;8.57;5.75;;;22.10;75.10;;;;;;7397824;19;20382;-72
2023/06/16 02:44:03;;;;;;;11.23;6.60;;;22.10;74.70;;;;;;7402182;19;19947;-73
2023/06/16 02:46:28;;;;;;;12.13;6.05;;;22.10;75.50;;;;;;7399691;19;19918;-72
2023/06/16 02:48:54;;;;;;;9.60;5.47;;;22.10;74.40;;;;;;7402921;19;19918;-72
2023/06/16 02:51:20;;;;;;;9.25;5.95;;;22.10;73.80;;;;;;7400411;19;19922;-73
2023/06/16 02:53:46;;;;;;;10.15;5.80;;;22.10;74.00;;;;;;7399560;19;19918;-72
2023/06/16 02:56:12;;;;;;;11.32;5.95;;;22.10;73.70;;;;;;7399767;19;20012;-72
2023/06/16 02:58:38;;;;;;;10.00;5.22;;;22.10;73.60;;;;;;7401137;19;20302;-72
2023/06/16 03:01:05;;;;;;;9.30;5.47;;;22.10;73.80;;;;;;7398005;19;19915;-71
2023/06/16 03:03:32;;;;;;;8.95;5.80;;;22.10;73.70;;;;;;7397868;19;19921;-72
2023/06/16 03:06:02;;;;;;;11.85;6.80;;;22.10;74.80;;;;;;7397775;19;19918;-72
2023/06/16 03:08:27;;;;;;;10.07;6.65;;;22.00;75.70;;;;;;7398376;19;19927;-72
2023/06/16 03:10:53;;;;;;;9.90;7.18;;;22.10;75.70;;;;;;7399659;19;20311;-72
2023/06/16 03:13:19;;;;;;;11.65;7.10;;;22.10;75.80;;;;;;7364757;19;19922;-72
2023/06/16 03:15:45;;;;;;;11.15;6.60;;;22.10;75.60;;;;;;7399221;19;19974;-72
2023/06/16 03:18:12;;;;;;;9.05;6.10;;;22.10;75.00;;;;;;7398167;19;19915;-72
2023/06/16 03:20:39;;;;;;;9.48;6.50;;;22.10;74.70;;;;;;7396484;19;19925;-72
2023/06/16 03:23:05;;;;;;;9.82;5.85;;;22.00;74.80;;;;;;7401751;19;20002;-71
2023/06/16 03:25:31;;;;;;;9.15;5.70;;;22.00;74.80;;;;;;7399880;19;20886;-72
2023/06/16 03:27:57;;;;;;;10.00;6.13;;;22.00;74.20;;;;;;7398753;19;19970;-72
2023/06/16 03:30:23;;;;;;;8.43;5.60;;;21.90;73.50;;;;;;7394727;19;19926;-72
2023/06/16 03:32:49;;;;;;;8.57;4.45;;;21.90;72.50;;;;;;7399620;19;19921;-72
2023/06/16 03:35:17;;;;;;;7.75;4.97;;;21.90;72.10;;;;;;7367959;19;19919;-72
2023/06/16 03:37:43;;;;;;;7.10;4.70;;;21.90;71.40;;;;;;7394519;19;19932;-71
2023/06/16 03:40:09;;;;;;;8.80;4.70;;;21.90;70.90;;;;;;7396598;19;20010;-72
2023/06/16 03:42:36;;;;;;;8.18;4.35;;;21.90;70.70;;;;;;7399210;19;19930;-73
2023/06/16 03:45:03;;;;;;;8.75;5.25;;;21.90;70.90;;;;;;7399689;19;20226;-72
2023/06/16 03:47:29;;;;;;;6.32;4.57;;;21.90;71.00;;;;;;7394841;19;19939;-72
2023/06/16 03:49:55;;;;;;;10.55;5.63;;;21.90;71.00;;;;;;7400792;19;19910;-71
2023/06/16 03:52:21;;;;;;;10.85;5.93;;;21.90;71.60;;;;;;7393950;19;19923;-72
2023/06/16 03:54:48;;;;;;;;;;;21.80;71.80;;;;;;7398561;19;19917;-72
2023/06/16 03:57:14;;;;;;;7.95;4.65;;;21.80;71.30;;;;;;7396133;19;20032;-72
2023/06/16 03:59:40;;;;;;;8.98;6.10;;;21.90;71.20;;;;;;7399777;19;19930;-72
2023/06/16 04:02:09;;;;;;;11.30;5.43;;;21.80;71.80;;;;;;7399186;19;19926;-71
2023/06/16 04:04:35;;;;;;;11.10;5.40;;;21.80;72.20;;;;;;7399313;19;19956;-73
2023/06/16 04:07:03;;;;;;;9.43;4.88;;;21.90;72.30;;;;;;7398637;19;19933;-72
2023/06/16 04:09:30;;;;;;;7.90;5.22;;;21.90;72.20;;;;;;7400369;19;19921;-72
2023/06/16 04:11:56;;;;;;;8.43;5.63;;;21.80;72.10;;;;;;7396175;19;19994;-72
2023/06/16 04:14:22;;;;;;;11.05;6.50;;;21.80;72.90;;;;;;7396507;19;20773;-72
2023/06/16 04:16:48;;;;;;;12.50;5.88;;;21.80;73.30;;;;;;7391317;19;19918;-72
2023/06/16 04:19:14;;;;;;;8.98;5.50;;;21.80;73.50;;;;;;7395851;19;19942;-72
2023/06/16 04:21:41;;;;;;;;;;;21.90;72.60;;;;;;7395945;19;20354;-72
2023/06/16 04:24:08;;;;;;;8.45;5.53;;;21.90;71.40;;;;;;7393346;19;19919;-72
2023/06/16 04:26:34;;;;;;;10.02;4.90;;;21.90;71.10;;;;;;7398481;19;19921;-72
2023/06/16 04:29:03;;;;;;;8.10;4.75;;;21.90;70.70;;;;;;7397722;19;19911;-73
2023/06/16 04:31:31;;;;;;;8.52;4.50;;;21.80;70.30;;;;;;7376495;19;19922;-72
2023/06/16 04:33:58;;;;;;;9.43;4.25;;;21.80;69.90;;;;;;7401242;19;20260;-72
2023/06/16 04:36:29;;;;;;;9.27;4.72;;;21.80;69.90;;;;;;7401260;19;20313;-72
2023/06/16 04:38:56;;;;;;;6.80;4.60;;;21.80;70.20;;;;;;7373837;19;19929;-73
2023/06/16 04:41:23;;;;;;;8.05;4.57;;;21.80;70.30;;;;;;7405212;19;19938;-72
2023/06/16 04:43:48;;;;;;;7.72;4.55;;;21.80;70.20;;;;;;7400434;19;19921;-72
2023/06/16 04:46:14;;;;;;;8.40;4.80;;;21.90;70.10;;;;;;7399006;19;19986;-73
2023/06/16 04:48:40;;;;;;;8.75;5.13;;;21.90;70.10;;;;;;7400974;19;20280;-71
2023/06/16 04:51:06;;;;;;;8.85;4.22;;;21.90;70.00;;;;;;7402739;19;19915;-72
2023/06/16 04:53:32;;;;;;;11.73;4.38;;;21.90;69.90;;;;;;7404950;19;20619;-73
2023/06/16 04:55:58;;;;;;;9.05;4.63;;;22.00;69.50;;;;;;7401506;19;19926;-72
2023/06/16 04:58:23;;;;;;;9.48;4.20;;;22.10;68.90;;;;;;7400739;19;19921;-73
2023/06/16 05:00:50;;;;;;;8.45;4.50;;;22.10;68.70;;;;;;7402227;19;19921;-72
2023/06/16 05:03:16;;;;;;;7.80;5.07;;;22.10;68.60;;;;;;7402266;19;20345;-72
2023/06/16 05:05:43;;;;;;;11.52;5.15;;;22.20;68.20;;;;;;7403293;19;19923;-72
2023/06/16 05:08:09;;;;;;;10.20;4.97;;;22.20;68.50;;;;;;7402946;19;19922;-72
2023/06/16 05:10:35;;;;;;;9.65;4.65;;;22.20;68.80;;;;;;7402164;19;19919;-72
2023/06/16 05:13:01;;;;;;;9.27;5.60;;;22.20;68.70;;;;;;7404358;19;20977;-71
2023/06/16 05:15:27;;;;;;;7.88;4.97;;;22.20;68.80;;;;;;7402701;19;19921;-72
2023/06/16 05:17:53;;;;;;;10.20;5.18;;;22.20;69.10;;;;;;7402393;19;20660;-73
2023/06/16 05:20:19;;;;;;;11.38;4.82;;;22.30;69.20;;;;;;7403626;19;19918;-72
2023/06/16 05:22:44;;;;;;;8.52;4.60;;;22.30;69.00;;;;;;7398173;19;19927;-72
2023/06/16 05:25:10;;;;;;;8.90;4.95;;;22.40;68.80;;;;;;7401256;19;19919;-72
2023/06/16 05:27:36;;;;;;;8.68;5.55;;;22.40;68.60;;;;;;7400981;19;19942;-74
2023/06/16 05:30:02;;;;;;;8.00;4.85;;;22.50;68.00;;;;;;7401594;19;19943;-73
2023/06/16 05:32:28;;;;;;;8.57;4.93;;;22.60;67.50;;;;;;7404884;19;20078;-72
2023/06/16 05:34:53;;;;;;;7.10;4.70;;;22.60;67.00;;;;;;7404653;19;19914;-72
2023/06/16 05:37:20;;;;;;;8.25;4.95;;;22.70;66.80;;;;;;7400891;19;19915;-72
2023/06/16 05:39:47;;;;;;;8.98;5.20;;;22.80;66.60;;;;;;7398799;19;19915;-71
2023/06/16 05:42:14;;;;;;;10.40;5.75;;;22.80;66.60;;;;;;7399482;19;19926;-72
2023/06/16 05:44:46;;;;;;;10.45;5.78;;;22.90;67.30;;;;;;7398404;19;19918;-72
2023/06/16 05:47:12;;;;;;;10.43;6.07;;;22.90;67.90;;;;;;7400553;19;19930;-72
2023/06/16 05:49:38;;;;;;;10.70;6.55;;;23.00;67.80;;;;;;7399416;19;19915;-73
2023/06/16 05:52:08;;;;;;;10.80;6.50;;;23.00;68.40;;;;;;7401784;19;19931;-73
2023/06/16 05:54:35;;;;;;;11.77;6.22;;;23.10;68.70;;;;;;7402284;19;19925;-73
2023/06/16 05:57:02;;;;;;;10.50;6.18;;;23.20;68.80;;;;;;7399591;19;19994;-73
2023/06/16 05:59:28;;;;;;;11.75;6.43;;;23.20;68.70;;;;;;7396272;19;19922;-73
2023/06/16 06:01:54;;;;;;;10.15;6.57;;;23.30;68.60;;;;;;7404552;19;20642;-74
2023/06/16 06:04:27;;;;;;;10.63;6.03;;;23.30;68.40;;;;;;7397913;19;19935;-72
2023/06/16 06:06:53;;;;;;;10.25;6.55;;;23.30;68.00;;;;;;7398416;19;19947;-73
2023/06/16 06:09:19;;;;;;;13.68;7.18;;;23.30;68.00;;;;;;7401439;19;19914;-72
2023/06/16 06:11:45;;;;;;;11.98;6.45;;;23.40;67.80;;;;;;7399241;19;19974;-72
2023/06/16 06:14:11;;;;;;;9.23;6.22;;;23.40;67.70;;;;;;7400551;19;19918;-73
2023/06/16 06:16:40;;;;;;;11.82;6.85;;;23.40;67.60;;;;;;7399050;19;19918;-72
2023/06/16 06:19:06;;;;;;;10.82;6.50;;;23.50;67.60;;;;;;7377940;19;20296;-73
2023/06/16 06:21:33;;;;;;;11.20;6.40;;;23.60;67.00;;;;;;7381741;19;19921;-73
2023/06/16 06:24:00;;;;;;;12.65;6.65;;;23.70;66.40;;;;;;7401226;19;20335;-73
2023/06/16 06:26:26;;;;;;;10.90;6.35;;;23.80;66.20;;;;;;7397582;19;19918;-73
2023/06/16 06:28:52;;;;;;;11.15;5.80;;;23.80;65.60;;;;;;7401914;19;19915;-73
2023/06/16 06:31:18;;;;;;;14.65;5.75;;;24.00;65.30;;;;;;7401798;19;19914;-73
2023/06/16 06:33:45;;;;;;;10.80;5.80;;;24.00;65.40;;;;;;7397688;19;19978;-72
2023/06/16 06:36:11;;;;;;;12.30;6.07;;;24.10;64.40;;;;;;7396712;19;19913;-73
2023/06/16 06:38:37;;;;;;;10.38;6.32;;;24.10;64.00;;;;;;7394779;19;19914;-72
2023/06/16 06:41:03;;;;;;;14.55;7.22;;;24.20;63.60;;;;;;7398620;19;20739;-72
2023/06/16 06:43:29;;;;;;;12.00;6.88;;;24.30;63.00;;;;;;7404135;19;19922;-73
2023/06/16 06:45:56;;;;;;;10.20;6.20;;;24.20;62.60;;;;;;7374358;19;19929;-72
2023/06/16 06:48:21;;;;;;;10.40;6.40;;;24.30;62.00;;;;;;7389373;19;20003;-73
2023/06/16 06:50:48;;;;;;;11.27;6.35;;;24.40;61.90;;;;;;7398034;19;19922;-73
2023/06/16 06:53:14;;;;;;;12.85;6.20;;;24.40;61.50;;;;;;7396249;19;19960;-74
2023/06/16 06:55:40;;;;;;;8.82;5.53;;;24.50;61.10;;;;;;7397391;19;19923;-73
2023/06/16 06:58:06;;;;;;;10.48;5.97;;;24.50;60.80;;;;;;7395463;19;19915;-72
2023/06/16 07:00:31;;;;;;;9.52;6.78;;;24.60;60.30;;;;;;7376914;19;20303;-72
2023/06/16 07:02:58;;;;;;;8.82;6.22;;;24.60;60.50;;;;;;7392159;19;19974;-73
2023/06/16 07:05:24;;;;;;;12.00;5.88;;;24.70;59.90;;;;;;7340824;19;19934;-72
2023/06/16 07:07:50;;;;;;;11.35;5.45;;;24.70;59.70;;;;;;7369127;19;20347;-73
2023/06/16 07:10:16;;;;;;;11.10;6.07;;;24.80;59.50;;;;;;7357125;19;19919;-75
2023/06/16 07:12:42;;;;;;;8.07;5.53;;;24.80;59.00;;;;;;7387573;19;19930;-74
2023/06/16 07:15:08;;;;;;;10.65;5.30;;;24.90;58.90;;;;;;7350746;19;20009;-72
2023/06/16 07:17:34;;;;;;;10.48;5.78;;;25.00;58.60;;;;;;7335575;19;20361;-72
2023/06/16 07:20:00;;;;;;;15.13;8.60;;;25.10;58.50;;;;;;7292546;19;19915;-75
2023/06/16 07:22:26;;;;;;;;;;;25.20;60.00;;;;;;7370947;19;20558;-73
2023/06/16 07:24:52;;;;;;;14.80;7.72;;;25.20;60.10;;;;;;7372152;19;20016;-74
2023/06/16 07:27:18;;;;;;;13.70;7.18;;;25.30;59.40;;;;;;7346284;19;19915;-72
2023/06/16 07:29:44;;;;;;;12.18;6.55;;;25.40;59.00;;;;;;7376979;19;19913;-74
2023/06/16 07:32:10;;;;;;;18.33;6.65;;;25.40;58.80;;;;;;7386728;19;19929;-74
2023/06/16 07:34:39;;;;;;;10.77;6.35;;;25.50;58.70;;;;;;7397129;19;19918;-74
2023/06/16 07:37:05;;;;;;;8.23;5.75;;;25.70;58.20;;;;;;7397338;19;19918;-73
2023/06/16 07:39:31;;;;;;;10.45;6.97;;;25.80;57.80;;;;;;7399130;19;20327;-73
2023/06/16 07:41:56;;;;;;;14.00;8.55;;;25.90;57.80;;;;;;7397243;19;19918;-74
2023/06/16 07:44:22;;;;;;;13.82;8.38;;;25.90;57.70;;;;;;7398728;19;19949;-72
2023/06/16 07:46:48;;;;;;;18.05;10.60;;;25.80;58.30;;;;;;7397466;19;20326;-73
2023/06/16 07:49:15;;;;;;;18.25;9.93;;;25.90;58.40;;;;;;7396152;19;19925;-73
2023/06/16 07:51:41;;;;;;;22.48;14.20;;;25.90;58.80;;;;;;7350066;19;19971;-74
2023/06/16 07:54:08;;;;;;;19.92;11.65;;;25.90;60.20;;;;;;7397522;19;19930;-73
2023/06/16 07:56:34;;;;;;;24.60;14.13;;;25.90;60.70;;;;;;7400355;19;19925;-73
2023/06/16 07:59:00;;;;;;;21.17;11.95;;;26.10;60.70;;;;;;7396849;19;19922;-74
2023/06/16 08:01:26;;;;;;;19.10;11.60;;;26.30;60.10;;;;;;7327587;19;20397;-74
2023/06/16 08:03:52;;;;;;;24.77;16.58;;;26.40;59.60;;;;;;7396932;19;20329;-74
2023/06/16 08:06:18;;;;;;;21.88;13.48;;;26.40;61.10;;;;;;7398846;19;19911;-73
2023/06/16 08:08:44;;;;;;;22.58;13.60;;;26.40;60.20;;;;;;7411220;19;20285;-73
2023/06/16 08:11:10;;;;;;;24.95;15.95;;;26.50;60.30;;;;;;7412957;19;19919;-74
2023/06/16 08:13:36;;;;;;;20.90;14.43;;;26.60;61.00;;;;;;7417335;19;19918;-74
2023/06/16 08:16:01;;;;;;;17.67;12.38;;;26.50;60.80;;;;;;7410758;19;20330;-73
2023/06/16 08:18:27;;;;;;;27.15;13.57;;;26.60;60.40;;;;;;7414961;19;19925;-73
2023/06/16 08:20:53;;;;;;;20.83;12.98;;;26.60;59.70;;;;;;7410381;19;19910;-73
2023/06/16 08:23:20;;;;;;;18.20;11.38;;;26.60;59.50;;;;;;7410558;19;19919;-72
2023/06/16 08:25:47;;;;;;;18.65;12.60;;;26.50;58.40;;;;;;7391151;19;19918;-73
2023/06/16 08:28:13;;;;;;;20.48;10.82;;;26.70;57.80;;;;;;7408666;19;19932;-72
2023/06/16 08:30:39;;;;;;;18.13;11.45;;;26.80;57.90;;;;;;7411387;19;19936;-72
2023/06/16 08:33:06;;;;;;;16.73;10.00;;;26.80;57.50;;;;;;7413500;19;19914;-74
2023/06/16 08:35:32;;;;;;;15.38;8.73;;;26.80;55.30;;;;;;7416613;19;19918;-73
2023/06/16 08:37:58;;;;;;;19.50;9.48;;;26.90;55.70;;;;;;7410653;19;19915;-73
2023/06/16 08:40:23;;;;;;;16.40;8.55;;;26.90;55.70;;;;;;7409509;19;20369;-74
2023/06/16 08:42:53;;;;;;;17.33;8.30;;;26.90;54.90;;;;;;7410881;19;19910;-73
2023/06/16 08:45:20;;;;;;;19.25;9.75;;;26.90;54.80;;;;;;7407335;19;19922;-73
2023/06/16 08:47:46;;;;;;;19.52;8.27;;;27.00;54.30;;;;;;7409534;19;19914;-73
2023/06/16 08:50:14;;;;;;;9.30;4.85;;;27.10;53.00;;;;;;7407763;19;19914;-73
2023/06/16 08:52:42;;;;;;;11.52;6.10;;;27.20;50.00;;;;;;7413128;19;19935;-74
2023/06/16 08:55:11;;;;;;;8.20;6.13;;;27.30;49.30;;;;;;7406561;19;19925;-72
2023/06/16 08:57:47;;;;;;;10.20;7.25;;;27.30;48.30;;;;;;7410587;19;19919;-73
2023/06/16 09:00:14;;;;;;;9.52;5.22;;;27.40;48.60;;;;;;7409036;19;20236;-74
2023/06/16 09:02:41;;;;;;;10.00;6.38;;;27.40;48.50;;;;;;7413538;19;19918;-73
2023/06/16 09:05:09;;;;;;;11.30;6.20;;;27.60;48.20;;;;;;7345337;19;20338;-74
2023/06/16 09:07:35;;;;;;;10.65;6.50;;;27.70;48.50;;;;;;7409904;19;19930;-74
2023/06/16 09:10:01;;;;;;;9.20;5.32;;;27.50;47.70;;;;;;7407399;19;19919;-74
2023/06/16 09:12:28;;;;;;;10.55;6.32;;;27.80;47.70;;;;;;7408874;19;19915;-72
2023/06/16 09:14:53;;;;;;;9.70;5.53;;;27.90;47.40;;;;;;7407221;19;19926;-72
2023/06/16 09:17:24;;;;;;;10.65;7.13;;;27.90;47.50;;;;;;7404553;19;19922;-73
2023/06/16 09:19:52;;;;;;;8.18;5.90;;;28.00;47.70;;;;;;7404244;19;19994;-73
2023/06/16 09:22:20;;;;;;;13.23;5.50;;;28.20;46.90;;;;;;7402716;19;19917;-73
2023/06/16 09:25:12;;;;;;;6.72;4.63;;;28.20;45.80;;;;;;7396956;19;19926;-73
2023/06/16 09:27:50;;;;;;;11.05;4.88;;;28.00;45.80;;;;;;7359538;19;19914;-73
2023/06/16 09:30:21;;;;;;;10.93;6.13;;;28.30;45.90;;;;;;7397279;19;20420;-73
2023/06/16 09:32:54;;;;;;;11.05;5.57;;;28.20;46.50;;;;;;7398368;19;19934;-72
2023/06/16 09:35:25;;;;;;;7.65;5.00;;;28.20;47.20;;;;;;7397116;19;20675;-73
2023/06/16 09:37:54;;;;;;;10.52;6.55;;;28.40;48.30;;;;;;7398969;19;19922;-73
2023/06/16 09:40:25;;;;;;;9.13;5.03;;;28.10;48.60;;;;;;7399557;19;19978;-73
2023/06/16 09:42:51;;;;;;;7.28;4.28;;;28.30;47.00;;;;;;7401420;19;19934;-73
2023/06/16 09:45:20;;;;;;;6.75;4.03;;;28.20;46.20;;;;;;7398280;19;19949;-74
2023/06/16 09:47:50;;;;;;;6.63;5.22;;;28.50;46.20;;;;;;7401084;19;19941;-73
2023/06/16 09:50:19;;;;;;;9.93;4.70;;;28.50;44.00;;;;;;7396138;19;19925;-73
2023/06/16 09:52:47;;;;;;;8.15;4.28;;;28.50;45.20;;;;;;7397665;19;20302;-74
2023/06/16 09:55:14;;;;;;;6.53;5.43;;;28.40;46.30;;;;;;7362196;19;20457;-73
2023/06/16 09:57:45;;;;;;;9.50;4.78;;;28.60;46.30;;;;;;7400037;19;19919;-74
2023/06/16 10:00:16;;;;;;;6.97;5.30;;;28.90;45.90;;;;;;7401650;19;19919;-73
2023/06/16 10:02:44;;;;;;;7.65;4.57;;;28.50;45.50;;;;;;7400446;19;19920;-73
2023/06/16 10:05:14;;;;;;;6.57;4.85;;;28.60;44.50;;;;;;7401271;19;19914;-73
2023/06/16 10:07:45;;;;;;;8.75;4.75;;;28.60;44.70;;;;;;7399809;19;19935;-74
2023/06/16 10:10:11;;;;;;;8.85;4.55;;;28.70;42.40;;;;;;7402746;19;19926;-74
2023/06/16 10:12:42;;;;;;;7.65;3.25;;;28.40;43.40;;;;;;7401058;19;20313;-74
2023/06/16 10:15:12;;;;;;;5.78;4.38;;;28.40;42.70;;;;;;7401319;19;19918;-73
2023/06/16 10:17:39;;;;;;;7.68;4.63;;;28.30;42.40;;;;;;7401566;19;19966;-73
2023/06/16 10:20:10;;;;;;;6.38;4.53;;;28.40;43.70;;;;;;7398131;19;19926;-73
2023/06/16 10:22:36;;;;;;;8.98;5.20;;;28.70;44.10;;;;;;7401126;19;19915;-73
2023/06/16 10:25:03;;;;;;;5.47;3.92;;;28.70;45.30;;;;;;7402000;19;19946;-73
2023/06/16 10:27:30;;;;;;;6.43;4.35;;;28.70;43.10;;;;;;7381979;19;19922;-73
2023/06/16 10:30:01;;;;;;;10.25;5.40;;;28.60;43.20;;;;;;7397399;19;19926;-74
2023/06/16 10:32:27;;;;;;;6.35;4.35;;;28.60;46.30;;;;;;7398142;19;19951;-73
2023/06/16 10:34:56;;;;;;;6.18;4.05;;;28.80;45.60;;;;;;7402323;19;19922;-73
2023/06/16 10:37:26;;;;;;;7.45;5.20;;;29.10;45.40;;;;;;7402012;19;20007;-73
2023/06/16 10:39:56;;;;;;;8.60;5.00;;;29.50;45.00;;;;;;7402891;19;19978;-74
2023/06/16 10:42:22;;;;;;;8.43;4.68;;;29.30;45.60;;;;;;7363673;19;19923;-75
2023/06/16 10:44:50;;;;;;;7.80;3.63;;;29.10;46.50;;;;;;7402835;19;19918;-75
2023/06/16 10:47:15;;;;;;;7.82;4.32;;;29.00;44.70;;;;;;7402534;19;19914;-74
2023/06/16 10:50:00;;;;;;;7.82;4.82;;;28.80;47.00;;;;;;7402504;19;20323;-75
2023/06/16 10:52:28;;;;;;;;;;;28.80;46.40;;;;;;7402822;19;19915;-74
2023/06/16 10:55:14;;;;;;;8.68;4.22;;;29.10;43.10;;;;;;7398737;19;19926;-73
2023/06/16 10:57:42;;;;;;;7.00;4.22;;;29.30;45.10;;;;;;7402072;19;19977;-74
2023/06/16 11:00:12;;;;;;;7.45;4.25;;;29.00;45.30;;;;;;7400384;19;20251;-74
2023/06/16 11:02:49;;;;;;;6.43;4.95;;;29.20;45.20;;;;;;7402750;19;19930;-73
2023/06/16 11:05:17;;;;;;;9.20;5.50;;;29.20;44.30;;;;;;7402123;19;19923;-75
2023/06/16 11:08:05;;;;;;;6.40;4.25;;;29.30;44.70;;;;;;7403702;19;19922;-75
2023/06/16 11:10:50;;;;;;;5.97;4.72;;;29.00;45.90;;;;;;7400111;19;19926;-73
2023/06/16 11:13:32;;;;;;;7.63;5.07;;;29.00;46.40;;;;;;7399120;19;20355;-76
2023/06/16 11:15:59;;;;;;;8.65;5.22;;;29.30;46.40;;;;;;7401284;19;19922;-73
2023/06/16 11:18:27;;;;;;;7.78;5.15;;;29.60;46.40;;;;;;7398921;19;19943;-73
2023/06/16 11:21:00;;;;;;;11.80;5.55;;;29.60;46.30;;;;;;7400041;19;19918;-74
2023/06/16 11:23:27;;;;;;;7.03;5.28;;;29.80;45.50;;;;;;7401676;19;19910;-74
2023/06/16 11:26:02;;;;;;;5.93;4.47;;;30.00;46.30;;;;;;7402208;19;19930;-73
2023/06/16 11:28:28;;;;;;;7.30;4.40;;;29.40;44.90;;;;;;7401355;19;19960;-74
2023/06/16 11:30:55;;;;;;;8.00;5.30;;;29.60;44.30;;;;;;7402776;19;20303;-75
2023/06/16 11:33:22;;;;;;;6.13;4.63;;;29.80;45.40;;;;;;7397570;19;20361;-73
2023/06/16 11:35:48;;;;;;;8.07;5.43;;;29.90;45.20;;;;;;7399654;19;19942;-73
2023/06/16 11:38:21;;;;;;;;;;;29.90;44.70;;;;;;7402084;19;19923;-73
2023/06/16 11:40:48;;;;;;;8.38;5.32;;;30.10;43.80;;;;;;7399488;19;19918;-76
2023/06/16 11:43:16;;;;;;;8.90;6.10;;;30.20;45.40;;;;;;7398066;19;19915;-74
2023/06/16 11:45:41;;;;;;;7.50;5.13;;;29.70;45.40;;;;;;7374885;19;19949;-72
2023/06/16 11:48:09;;;;;;;8.63;5.40;;;29.90;45.90;;;;;;7398714;19;19918;-73
2023/06/16 11:50:36;;;;;;;6.05;3.83;;;29.80;44.90;;;;;;7397088;19;19929;-74
2023/06/16 11:53:02;;;;;;;7.57;4.78;;;29.90;44.40;;;;;;7384339;19;19914;-73
2023/06/16 11:55:29;;;;;;;6.65;5.35;;;30.00;43.80;;;;;;7345825;19;19914;-73
2023/06/16 11:57:57;;;;;;;7.10;4.43;;;30.30;44.10;;;;;;7345469;19;19930;-73
2023/06/16 12:00:23;;;;;;;6.90;4.57;;;30.50;44.50;;;;;;7356010;19;19934;-73
2023/06/16 12:02:51;;;;;;;6.85;4.38;;;29.80;42.70;;;;;;7364012;19;19907;-72
2023/06/16 12:05:23;;;;;;;5.80;4.35;;;29.90;43.80;;;;;;7384014;19;19933;-72
2023/06/16 12:07:49;;;;;;;8.43;5.55;;;29.50;42.70;;;;;;7337776;19;19911;-73
2023/06/16 12:10:18;;;;;;;8.13;4.85;;;29.80;43.80;;;;;;7333391;19;20001;-73
2023/06/16 12:12:45;;;;;;;7.78;5.20;;;30.20;41.10;;;;;;7343798;19;19918;-73
2023/06/16 12:15:20;;;;;;;9.52;5.50;;;30.40;42.00;;;;;;7361122;19;19949;-73
2023/06/16 12:17:49;;;;;;;6.70;4.57;;;30.30;39.50;;;;;;7355851;19;20445;-73
2023/06/16 12:20:16;;;;;;;7.85;5.00;;;30.00;42.00;;;;;;7340418;19;19934;-72
2023/06/16 12:22:44;;;;;;;7.10;4.60;;;30.20;43.10;;;;;;7372910;19;19922;-73
2023/06/16 12:25:13;;;;;;;6.28;5.07;;;30.60;41.20;;;;;;7344928;19;19907;-74
2023/06/16 12:27:42;;;;;;;9.40;5.10;;;30.20;41.40;;;;;;7335280;19;19919;-73
2023/06/16 12:30:08;;;;;;;8.20;5.05;;;30.20;42.90;;;;;;7349146;19;19915;-72
2023/06/16 12:32:36;;;;;;;9.40;5.93;;;30.70;43.10;;;;;;7368883;19;19914;-73
2023/06/16 12:35:02;;;;;;;6.90;5.63;;;30.50;43.70;;;;;;7343543;19;19914;-74
2023/06/16 12:37:29;;;;;;;6.90;5.13;;;30.60;40.50;;;;;;7334156;19;19934;-73
2023/06/16 12:40:00;;;;;;;7.80;4.18;;;30.90;40.70;;;;;;7346194;19;20500;-73
2023/06/16 12:42:30;;;;;;;7.45;5.60;;;31.10;40.80;;;;;;7334179;19;20322;-73
2023/06/16 12:44:59;;;;;;;6.63;4.60;;;31.50;41.20;;;;;;7374929;19;19953;-72